Time;durP1;ratioP1;P1;durP2;ratioP2;P2;SDS_P1;SDS_P2;PMS_P1;PMS_P2;Temp;Humidity;BMP_temperature;BMP_pressure;BME280_temperature;BME280_humidity;BME280_pressure;Samples;Min_cycle;Max_cycle;Signal;HPM_P1;HPM_P2
2022/05/30 00:01:27;;;;;;;8.80;2.40;;;11.40;99.90;;;;;;5014595;28;20201;-80
2022/05/30 00:03:54;;;;;;;10.50;2.03;;;11.40;99.90;;;;;;5020434;28;20198;-80
2022/05/30 00:06:23;;;;;;;5.70;1.75;;;11.40;99.90;;;;;;5011213;28;20703;-80
2022/05/30 00:08:51;;;;;;;9.75;2.20;;;11.30;99.90;;;;;;5013936;28;20204;-79
2022/05/30 00:11:18;;;;;;;5.68;1.60;;;11.20;99.90;;;;;;5007951;28;20308;-81
2022/05/30 00:13:47;;;;;;;6.43;1.90;;;11.10;99.90;;;;;;5014474;28;20555;-81
2022/05/30 00:16:16;;;;;;;10.73;2.33;;;11.10;99.90;;;;;;5018958;28;20304;-80
2022/05/30 00:18:45;;;;;;;6.72;1.50;;;11.10;99.90;;;;;;5014845;28;20561;-80
2022/05/30 00:21:13;;;;;;;3.05;1.35;;;11.00;99.90;;;;;;5005229;28;20629;-80
2022/05/30 00:23:41;;;;;;;2.42;1.30;;;11.00;99.90;;;;;;5006845;28;20201;-80
2022/05/30 00:26:09;;;;;;;2.33;1.40;;;11.00;99.90;;;;;;5013387;28;20229;-80
2022/05/30 00:28:37;;;;;;;5.25;1.40;;;11.00;99.90;;;;;;5010288;28;20208;-80
2022/05/30 00:31:09;;;;;;;2.60;1.52;;;11.00;99.90;;;;;;5020698;28;20269;-79
2022/05/30 00:33:36;;;;;;;4.90;1.58;;;11.20;99.90;;;;;;5018135;28;20197;-78
2022/05/30 00:36:04;;;;;;;5.38;1.52;;;11.00;99.90;;;;;;5016550;28;20256;-80
2022/05/30 00:38:31;;;;;;;5.78;1.52;;;11.00;99.90;;;;;;5015870;28;20623;-79
2022/05/30 00:40:58;;;;;;;5.30;1.20;;;11.00;99.90;;;;;;5013182;28;20264;-80
2022/05/30 00:43:28;;;;;;;3.85;1.20;;;11.00;99.90;;;;;;5016627;28;20201;-80
2022/05/30 00:45:58;;;;;;;3.15;1.30;;;11.00;99.90;;;;;;5014452;28;20319;-80
2022/05/30 00:48:31;;;;;;;6.70;1.55;;;11.10;99.90;;;;;;5011726;28;20200;-79
2022/05/30 00:51:01;;;;;;;4.10;1.23;;;11.10;99.90;;;;;;5016794;28;20251;-80
2022/05/30 00:53:29;;;;;;;5.97;1.70;;;11.10;99.90;;;;;;5021181;28;20233;-82
2022/05/30 00:55:57;;;;;;;3.28;1.10;;;11.20;99.90;;;;;;5011216;28;20257;-81
2022/05/30 00:58:27;;;;;;;3.28;1.25;;;11.20;99.90;;;;;;5026560;28;20198;-81
2022/05/30 01:00:54;;;;;;;6.78;1.60;;;11.30;99.90;;;;;;5014004;28;20204;-81
2022/05/30 01:08:54;;;;;;;1.63;1.00;;;11.50;99.90;;;;;;5028201;28;20260;-80
2022/05/30 01:11:21;;;;;;;5.43;2.10;;;11.50;99.90;;;;;;5013306;28;20317;-81
2022/05/30 01:13:48;;;;;;;3.20;1.60;;;11.50;99.90;;;;;;5012806;28;20255;-80
2022/05/30 01:16:15;;;;;;;6.75;1.98;;;11.50;99.90;;;;;;5017917;28;20259;-79
2022/05/30 01:18:47;;;;;;;4.45;1.70;;;11.50;99.90;;;;;;5018780;28;20229;-80
2022/05/30 01:21:38;;;;;;;4.45;1.50;;;11.50;99.90;;;;;;5018110;28;20284;-81
2022/05/30 01:24:21;;;;;;;6.90;1.50;;;11.50;99.90;;;;;;5031267;28;20230;-80
2022/05/30 01:27:03;;;;;;;9.27;2.25;;;11.40;99.90;;;;;;5023041;28;20289;-79
2022/05/30 01:29:36;;;;;;;2.88;1.70;;;11.30;99.90;;;;;;5016837;28;20216;-78
2022/05/30 01:32:03;;;;;;;5.63;1.77;;;11.30;99.90;;;;;;5018307;28;20356;-79
2022/05/30 01:34:30;;;;;;;3.90;1.30;;;11.30;99.90;;;;;;5014992;28;20214;-79
2022/05/30 01:36:57;;;;;;;5.97;1.35;;;11.20;99.90;;;;;;5014210;28;20731;-79
2022/05/30 01:39:23;;;;;;;5.25;1.70;;;11.20;99.90;;;;;;5015558;28;20209;-81
2022/05/30 01:41:50;;;;;;;5.28;2.10;;;11.10;99.90;;;;;;5020019;28;20707;-79
2022/05/30 01:44:17;;;;;;;7.32;1.90;;;11.20;99.90;;;;;;5030861;28;20280;-78
2022/05/30 01:46:46;;;;;;;8.48;4.57;;;11.10;99.90;;;;;;5013111;28;20584;-79
2022/05/30 01:49:13;;;;;;;11.10;3.03;;;11.10;99.90;;;;;;5018064;28;20209;-80
2022/05/30 01:51:41;;;;;;;5.30;2.05;;;11.10;99.90;;;;;;5015915;28;20283;-78
2022/05/30 01:54:08;;;;;;;10.75;2.28;;;10.90;99.90;;;;;;5016665;28;20203;-79
2022/05/30 01:56:35;;;;;;;6.30;1.90;;;10.90;99.90;;;;;;5024940;28;20231;-81
2022/05/30 01:59:02;;;;;;;6.55;2.63;;;10.90;99.90;;;;;;5025287;28;20260;-80
2022/05/30 02:01:29;;;;;;;4.70;2.10;;;10.90;99.90;;;;;;5019808;28;20739;-80
2022/05/30 02:03:58;;;;;;;5.47;1.88;;;11.00;99.90;;;;;;5024020;28;20243;-80
2022/05/30 02:06:27;;;;;;;8.15;2.08;;;11.10;99.90;;;;;;5009986;28;20248;-81
2022/05/30 02:08:54;;;;;;;8.45;3.35;;;10.90;99.90;;;;;;5015004;28;20228;-80
2022/05/30 02:11:21;;;;;;;5.97;2.28;;;10.90;99.90;;;;;;5018504;28;20208;-79
2022/05/30 02:13:49;;;;;;;9.68;2.47;;;10.80;99.90;;;;;;5019061;28;20237;-80
2022/05/30 02:19:05;;;;;;;9.15;2.85;;;10.90;99.90;;;;;;5026843;28;20257;-80
2022/05/30 02:21:34;;;;;;;9.25;1.98;;;10.80;99.90;;;;;;5017436;28;20199;-81
2022/05/30 02:24:00;;;;;;;9.35;2.20;;;10.80;99.90;;;;;;5021860;28;20209;-80
2022/05/30 02:26:27;;;;;;;7.22;1.90;;;10.70;99.90;;;;;;5017002;28;20312;-80
2022/05/30 02:28:54;;;;;;;9.73;2.63;;;10.80;99.90;;;;;;5015258;28;20419;-80
2022/05/30 02:31:22;;;;;;;5.55;2.40;;;10.70;99.90;;;;;;5015827;28;20285;-80
2022/05/30 02:36:40;;;;;;;9.30;2.53;;;10.80;99.90;;;;;;5011884;28;20256;-80
2022/05/30 02:39:08;;;;;;;8.13;1.80;;;10.70;99.90;;;;;;5012830;28;20201;-79
2022/05/30 02:41:35;;;;;;;6.80;2.65;;;10.70;99.90;;;;;;5011939;28;20280;-79
2022/05/30 02:44:02;;;;;;;7.10;2.42;;;10.70;99.90;;;;;;5012615;28;20291;-81
2022/05/30 02:46:29;;;;;;;10.82;1.95;;;10.70;99.90;;;;;;5021906;28;20313;-81
2022/05/30 02:48:56;;;;;;;8.75;2.60;;;10.60;99.90;;;;;;5004127;28;20308;-81
2022/05/30 02:51:23;;;;;;;13.02;2.78;;;10.60;99.90;;;;;;5015415;28;20229;-80
2022/05/30 02:53:52;;;;;;;9.68;2.60;;;10.60;99.90;;;;;;5010318;28;20213;-80
2022/05/30 02:56:19;;;;;;;10.00;4.18;;;10.60;99.90;;;;;;5021370;28;20233;-79
2022/05/30 02:58:46;;;;;;;6.82;3.28;;;10.60;99.90;;;;;;5025089;28;20225;-81
2022/05/30 03:01:14;;;;;;;11.90;3.50;;;10.60;99.90;;;;;;5021938;28;20220;-82
2022/05/30 03:03:41;;;;;;;7.20;2.22;;;10.50;99.90;;;;;;5015553;28;20284;-81
2022/05/30 03:06:08;;;;;;;8.00;2.60;;;10.50;99.90;;;;;;5012962;28;20220;-80
2022/05/30 03:08:35;;;;;;;5.97;3.33;;;10.50;99.90;;;;;;5017917;28;20201;-80
2022/05/30 03:11:05;;;;;;;7.85;3.50;;;10.50;99.90;;;;;;5026795;28;20276;-80
2022/05/30 03:13:31;;;;;;;6.32;2.33;;;10.50;99.90;;;;;;5040212;28;20200;-81
2022/05/30 03:15:59;;;;;;;9.77;2.83;;;10.50;99.90;;;;;;5016520;28;20342;-80
2022/05/30 03:18:26;;;;;;;10.30;2.42;;;10.50;99.90;;;;;;5010775;28;20200;-80
2022/05/30 03:20:53;;;;;;;6.15;2.08;;;10.40;99.90;;;;;;5008868;28;20225;-81
2022/05/30 03:23:21;;;;;;;11.80;3.03;;;10.40;99.90;;;;;;5016530;28;20296;-80
2022/05/30 03:25:48;;;;;;;9.52;3.28;;;10.40;99.90;;;;;;5015046;28;20272;-80
2022/05/30 03:28:16;;;;;;;9.30;2.97;;;10.40;99.90;;;;;;5016022;28;20282;-81
2022/05/30 03:30:44;;;;;;;12.38;3.65;;;10.30;99.90;;;;;;5016496;28;20292;-81
2022/05/30 03:33:11;;;;;;;9.13;2.75;;;10.30;99.90;;;;;;5023375;28;20220;-81
2022/05/30 03:35:40;;;;;;;4.70;1.85;;;10.30;99.90;;;;;;5033401;28;20232;-80
2022/05/30 03:38:08;;;;;;;9.80;3.22;;;10.30;99.90;;;;;;5018528;28;20260;-81
2022/05/30 03:40:37;;;;;;;13.15;3.05;;;10.30;99.90;;;;;;5020020;28;20683;-81
2022/05/30 03:43:07;;;;;;;10.93;3.05;;;10.30;99.90;;;;;;5015149;28;20201;-81
2022/05/30 03:45:36;;;;;;;7.97;3.15;;;10.30;99.90;;;;;;5019327;28;20709;-81
2022/05/30 03:48:04;;;;;;;14.20;3.03;;;10.30;99.90;;;;;;5017195;28;20585;-80
2022/05/30 03:50:31;;;;;;;5.50;2.53;;;10.30;99.90;;;;;;5011916;28;20291;-80
2022/05/30 03:53:04;;;;;;;8.60;3.13;;;10.40;99.90;;;;;;5021388;28;20287;-80
2022/05/30 03:55:34;;;;;;;9.18;3.20;;;10.30;99.90;;;;;;4996183;28;20236;-80
2022/05/30 03:58:02;;;;;;;14.18;3.05;;;10.40;99.90;;;;;;5013569;28;20271;-80
2022/05/30 04:00:29;;;;;;;14.90;3.00;;;10.40;99.90;;;;;;5013595;28;20201;-81
2022/05/30 04:02:58;;;;;;;8.98;3.25;;;10.40;99.90;;;;;;5015955;28;20526;-81
2022/05/30 04:05:25;;;;;;;11.82;2.97;;;10.50;99.90;;;;;;5015252;28;20223;-81
2022/05/30 04:07:52;;;;;;;5.75;2.33;;;10.50;99.90;;;;;;5022238;28;20671;-81
2022/05/30 04:10:19;;;;;;;5.72;2.97;;;10.50;99.90;;;;;;5024531;28;20236;-81
2022/05/30 04:12:49;;;;;;;6.38;2.55;;;10.60;99.90;;;;;;5034283;28;20208;-82
2022/05/30 04:15:19;;;;;;;4.32;2.30;;;10.60;99.90;;;;;;5016302;28;20315;-82
2022/05/30 04:17:47;;;;;;;4.82;2.25;;;10.70;99.90;;;;;;5018074;28;20223;-81
2022/05/30 04:20:16;;;;;;;6.55;3.20;;;10.80;99.90;;;;;;5014897;28;20240;-80
2022/05/30 04:22:45;;;;;;;5.05;2.83;;;10.80;99.90;;;;;;5011546;28;20193;-81
2022/05/30 04:25:12;;;;;;;4.93;3.20;;;10.80;99.90;;;;;;5014960;28;20578;-81
2022/05/30 04:27:45;;;;;;;6.80;2.40;;;10.90;99.90;;;;;;5013652;28;20232;-82
2022/05/30 04:30:13;;;;;;;4.75;2.47;;;10.90;99.90;;;;;;5017775;28;20279;-80
2022/05/30 04:32:40;;;;;;;11.48;3.40;;;10.90;99.90;;;;;;5010103;28;20196;-80
2022/05/30 04:35:08;;;;;;;7.30;2.75;;;11.00;99.90;;;;;;5007812;28;20312;-81
2022/05/30 04:37:37;;;;;;;6.32;2.90;;;11.10;99.90;;;;;;5013864;28;20284;-81
2022/05/30 04:40:05;;;;;;;9.25;2.92;;;11.20;99.90;;;;;;5015907;28;20205;-82
2022/05/30 04:42:34;;;;;;;6.00;2.63;;;11.30;99.90;;;;;;5022130;28;20694;-80
2022/05/30 04:45:01;;;;;;;5.90;2.42;;;11.30;99.90;;;;;;5019219;28;20268;-80
2022/05/30 04:47:33;;;;;;;4.20;2.55;;;11.50;99.90;;;;;;5031386;28;20194;-81
2022/05/30 04:49:59;;;;;;;8.15;2.75;;;11.50;99.90;;;;;;5037319;28;20220;-81
2022/05/30 04:52:36;;;;;;;6.53;2.58;;;11.40;99.90;;;;;;5041619;28;20263;-81
2022/05/30 04:55:05;;;;;;;4.72;1.80;;;11.50;99.90;;;;;;5030842;28;20229;-80
2022/05/30 04:57:40;;;;;;;7.32;2.35;;;11.50;99.90;;;;;;5031884;28;20205;-82
2022/05/30 05:00:09;;;;;;;4.15;1.52;;;11.50;99.90;;;;;;5025997;28;20551;-81
2022/05/30 05:02:35;;;;;;;9.07;2.10;;;11.60;99.90;;;;;;5023043;28;20239;-80
2022/05/30 05:05:02;;;;;;;11.63;2.88;;;11.60;99.90;;;;;;5017863;28;20684;-80
2022/05/30 05:07:36;;;;;;;9.20;3.05;;;11.60;99.90;;;;;;5018587;28;20792;-78
2022/05/30 05:10:08;;;;;;;6.15;2.35;;;11.60;99.90;;;;;;5025477;28;20223;-78
2022/05/30 05:12:35;;;;;;;7.70;4.13;;;11.70;99.90;;;;;;5012539;28;20311;-78
2022/05/30 05:15:02;;;;;;;8.82;2.45;;;11.70;99.90;;;;;;5017884;28;20260;-75
2022/05/30 05:17:29;;;;;;;3.83;1.92;;;11.70;99.90;;;;;;5008977;28;20206;-79
2022/05/30 05:19:56;;;;;;;7.25;2.40;;;11.70;99.90;;;;;;5023689;28;20215;-77
2022/05/30 05:22:23;;;;;;;8.05;3.35;;;11.80;99.90;;;;;;5018178;28;20225;-77
2022/05/30 05:24:52;;;;;;;11.98;2.75;;;11.80;99.90;;;;;;5010585;28;20272;-75
2022/05/30 05:27:20;;;;;;;8.52;3.15;;;11.90;99.90;;;;;;5014229;28;20356;-74
2022/05/30 05:29:47;;;;;;;8.13;3.17;;;12.00;99.90;;;;;;5018314;28;20707;-75
2022/05/30 05:32:15;;;;;;;6.07;2.63;;;12.10;99.90;;;;;;5014571;28;20247;-73
2022/05/30 05:34:42;;;;;;;9.55;3.47;;;12.10;99.90;;;;;;5010664;28;20235;-76
2022/05/30 05:37:09;;;;;;;6.45;2.60;;;12.20;99.90;;;;;;5006965;28;20346;-76
2022/05/30 05:39:35;;;;;;;8.02;3.50;;;12.10;99.90;;;;;;5013359;28;20294;-76
2022/05/30 05:42:02;;;;;;;6.38;2.90;;;12.20;99.90;;;;;;5007081;28;20232;-76
2022/05/30 05:44:31;;;;;;;5.35;2.65;;;12.20;99.90;;;;;;5007640;28;20241;-75
2022/05/30 05:46:58;;;;;;;7.03;4.00;;;12.20;99.90;;;;;;5010059;28;20285;-75
2022/05/30 05:49:25;;;;;;;5.15;2.45;;;12.20;99.90;;;;;;5000486;28;20656;-75
2022/05/30 05:51:54;;;;;;;6.43;2.10;;;12.30;99.90;;;;;;5005045;28;20208;-75
2022/05/30 05:54:22;;;;;;;5.28;1.50;;;12.30;99.90;;;;;;5014749;28;20197;-75
2022/05/30 05:56:49;;;;;;;9.00;1.95;;;12.20;99.90;;;;;;5015757;28;20210;-75
2022/05/30 05:59:17;;;;;;;6.10;2.30;;;12.40;99.90;;;;;;5017721;28;20193;-75
2022/05/30 06:01:45;;;;;;;3.83;1.63;;;12.60;99.90;;;;;;5015529;28;20210;-74
2022/05/30 06:04:12;;;;;;;3.33;2.25;;;12.70;99.90;;;;;;5014937;28;20232;-75
2022/05/30 06:06:39;;;;;;;5.43;1.63;;;12.80;99.90;;;;;;5015332;28;20223;-74
2022/05/30 06:09:07;;;;;;;8.02;1.80;;;12.90;99.90;;;;;;5014333;28;20203;-74
2022/05/30 06:11:35;;;;;;;3.00;1.88;;;13.00;99.90;;;;;;5014472;28;20215;-75
2022/05/30 06:14:02;;;;;;;4.15;1.75;;;13.20;99.90;;;;;;5014744;28;20215;-73
2022/05/30 06:16:31;;;;;;;9.90;2.00;;;13.30;99.90;;;;;;5015184;28;20395;-74
2022/05/30 06:19:02;;;;;;;7.28;1.30;;;13.40;99.90;;;;;;5011052;28;20201;-75
2022/05/30 06:21:32;;;;;;;4.15;1.77;;;13.50;99.90;;;;;;5008601;28;20239;-75
2022/05/30 06:23:59;;;;;;;2.97;1.33;;;13.40;99.90;;;;;;5013440;28;20267;-74
2022/05/30 06:26:27;;;;;;;5.40;2.33;;;13.60;99.90;;;;;;5002155;28;20254;-74
2022/05/30 06:28:55;;;;;;;5.55;1.63;;;13.70;99.90;;;;;;5004770;28;20232;-76
2022/05/30 06:31:25;;;;;;;4.13;1.70;;;14.00;99.90;;;;;;5004285;28;20660;-76
2022/05/30 06:33:53;;;;;;;7.35;3.17;;;14.00;99.90;;;;;;5010772;28;20239;-74
2022/05/30 06:36:24;;;;;;;3.88;1.30;;;14.40;99.90;;;;;;5011831;28;20221;-75
2022/05/30 06:38:53;;;;;;;3.40;1.75;;;14.80;99.90;;;;;;5015402;28;20711;-75
2022/05/30 06:41:21;;;;;;;3.90;1.40;;;15.40;99.90;;;;;;5004870;28;20624;-75
2022/05/30 06:43:48;;;;;;;5.03;1.50;;;15.80;99.90;;;;;;5006486;28;20197;-74
2022/05/30 06:46:17;;;;;;;9.38;1.90;;;16.30;99.90;;;;;;5015791;28;20234;-75
2022/05/30 06:48:44;;;;;;;7.53;1.90;;;16.70;99.10;;;;;;5014427;28;20285;-73
2022/05/30 06:51:13;;;;;;;7.03;1.63;;;17.20;97.20;;;;;;5012095;28;20339;-76
2022/05/30 06:53:43;;;;;;;5.07;1.67;;;17.60;95.60;;;;;;5014636;28;20240;-73
2022/05/30 06:56:14;;;;;;;7.70;1.63;;;17.80;94.60;;;;;;5011601;28;20577;-75
2022/05/30 06:58:41;;;;;;;2.60;2.23;;;18.00;94.30;;;;;;5006937;28;20531;-73
2022/05/30 07:01:09;;;;;;;4.30;1.50;;;18.20;94.00;;;;;;5010608;28;20475;-72
2022/05/30 07:03:37;;;;;;;5.63;2.20;;;18.30;93.00;;;;;;5010293;28;20849;-73
2022/05/30 07:06:07;;;;;;;2.87;1.37;;;18.40;92.40;;;;;;5007865;28;20477;-74
2022/05/30 07:08:35;;;;;;;3.80;1.40;;;18.30;92.10;;;;;;5010897;28;20478;-75
2022/05/30 07:11:03;;;;;;;2.30;1.63;;;18.00;91.80;;;;;;5009475;28;20463;-75
2022/05/30 07:13:31;;;;;;;4.68;1.67;;;17.80;92.70;;;;;;5008062;28;20290;-73
2022/05/30 07:15:59;;;;;;;4.50;1.60;;;18.00;92.30;;;;;;5013735;28;20308;-71
2022/05/30 07:18:26;;;;;;;4.70;1.83;;;18.30;92.30;;;;;;5010565;28;20501;-72
2022/05/30 07:20:57;;;;;;;4.53;1.63;;;18.40;91.90;;;;;;5010891;28;20455;-74
2022/05/30 07:23:24;;;;;;;4.67;1.13;;;18.40;91.60;;;;;;5011449;28;20476;-72
2022/05/30 07:25:57;;;;;;;2.30;1.60;;;18.40;91.60;;;;;;5011524;28;20547;-74
2022/05/30 07:28:28;;;;;;;4.43;1.47;;;18.10;91.40;;;;;;5013085;28;20439;-75
2022/05/30 07:30:56;;;;;;;2.80;1.20;;;17.90;92.20;;;;;;5013048;28;20509;-74
2022/05/30 07:33:22;;;;;;;6.90;1.70;;;17.60;92.40;;;;;;5014557;28;20442;-74
2022/05/30 07:35:50;;;;;;;5.28;1.73;;;17.40;92.70;;;;;;5008863;28;21032;-73
2022/05/30 07:38:17;;;;;;;2.53;1.20;;;17.30;92.90;;;;;;5019373;28;20234;-74
2022/05/30 07:40:44;;;;;;;4.05;1.70;;;17.30;93.00;;;;;;5023734;28;20239;-73
2022/05/30 07:43:12;;;;;;;3.40;1.35;;;17.10;92.90;;;;;;5022565;28;20252;-74
2022/05/30 07:45:40;;;;;;;3.78;1.20;;;16.70;92.80;;;;;;5030323;28;20229;-71
2022/05/30 07:48:10;;;;;;;3.38;1.90;;;16.50;93.80;;;;;;5028601;28;20202;-70
2022/05/30 07:50:38;;;;;;;5.18;1.98;;;16.50;92.80;;;;;;5017494;28;20233;-72
2022/05/30 07:53:05;;;;;;;2.75;0.95;;;16.30;93.20;;;;;;5014768;28;20294;-71
2022/05/30 07:55:33;;;;;;;2.63;1.45;;;16.20;93.40;;;;;;5009948;28;20727;-72
2022/05/30 07:58:04;;;;;;;1.70;1.10;;;16.40;93.70;;;;;;5019746;28;20207;-74
2022/05/30 08:00:33;;;;;;;2.77;1.43;;;16.70;93.40;;;;;;5004245;28;20446;-74
2022/05/30 08:03:03;;;;;;;3.90;1.90;;;17.20;92.40;;;;;;5009032;28;20912;-73
2022/05/30 08:05:31;;;;;;;3.53;1.73;;;17.60;93.00;;;;;;5009719;28;20470;-73
2022/05/30 08:07:58;;;;;;;5.33;2.63;;;18.00;92.70;;;;;;5013331;28;20482;-75
2022/05/30 08:10:25;;;;;;;3.70;2.00;;;18.20;91.20;;;;;;5011987;28;20521;-75
2022/05/30 08:12:52;;;;;;;9.00;2.10;;;18.50;90.50;;;;;;5013260;28;20452;-73
2022/05/30 08:15:19;;;;;;;6.40;1.93;;;18.40;90.30;;;;;;5006037;28;20505;-74
2022/05/30 08:17:46;;;;;;;4.93;1.83;;;18.20;90.50;;;;;;5012479;28;20515;-72
2022/05/30 08:20:17;;;;;;;4.50;2.63;;;18.30;91.00;;;;;;5011633;28;20447;-71
2022/05/30 08:22:44;;;;;;;6.50;1.63;;;18.50;90.80;;;;;;5012578;28;20439;-73
2022/05/30 08:25:15;;;;;;;2.57;1.40;;;19.00;90.10;;;;;;5012178;28;20859;-73
2022/05/30 08:27:42;;;;;;;1.80;1.50;;;19.30;85.90;;;;;;5011138;28;20441;-72
2022/05/30 08:30:11;;;;;;;3.37;1.27;;;19.70;86.90;;;;;;5011291;28;20473;-73
2022/05/30 08:32:41;;;;;;;2.67;1.50;;;20.10;84.80;;;;;;5016359;28;20486;-72
2022/05/30 08:35:10;;;;;;;4.07;1.40;;;20.40;84.30;;;;;;5007338;28;20556;-71
2022/05/30 08:37:38;;;;;;;1.57;1.20;;;20.70;82.70;;;;;;5005834;28;20556;-71
2022/05/30 08:42:53;;;;;;;2.73;1.13;;;20.70;82.40;;;;;;5007250;28;20438;-74
2022/05/30 08:45:23;;;;;;;5.03;1.73;;;20.60;81.90;;;;;;5012727;28;20477;-73
2022/05/30 08:47:52;;;;;;;3.00;1.43;;;20.70;82.20;;;;;;5023188;28;20499;-72
2022/05/30 08:50:35;;;;;;;5.10;2.57;;;20.70;81.90;;;;;;5025101;28;20574;-71
2022/05/30 08:53:36;;;;;;;3.93;1.87;;;20.30;80.30;;;;;;5022358;28;20444;-74
2022/05/30 08:56:14;;;;;;;4.23;1.30;;;19.80;82.00;;;;;;4993256;28;20467;-73
2022/05/30 08:58:53;;;;;;;2.50;1.10;;;19.50;83.70;;;;;;4996908;28;20467;-73
2022/05/30 09:01:26;;;;;;;7.03;2.10;;;19.20;84.60;;;;;;4984276;28;20439;-75
2022/05/30 09:04:09;;;;;;;4.97;2.30;;;19.00;85.10;;;;;;5007691;28;20503;-73
2022/05/30 09:06:42;;;;;;;6.93;1.80;;;18.90;88.40;;;;;;5011858;28;20479;-73
2022/05/30 09:09:16;;;;;;;2.60;1.23;;;19.00;88.20;;;;;;5002956;28;20487;-73
2022/05/30 09:11:47;;;;;;;5.80;1.53;;;19.40;86.30;;;;;;5007688;28;21020;-75
2022/05/30 09:14:19;;;;;;;3.77;1.33;;;20.10;83.60;;;;;;5010980;28;20763;-72
2022/05/30 09:16:50;;;;;;;3.03;1.00;;;20.60;82.50;;;;;;5005282;28;20489;-72
2022/05/30 09:19:24;;;;;;;4.50;1.10;;;21.40;79.30;;;;;;5008034;28;20506;-72
2022/05/30 09:21:53;;;;;;;3.53;1.03;;;22.10;77.30;;;;;;5011556;28;20842;-73
2022/05/30 09:24:22;;;;;;;4.13;1.40;;;22.20;77.10;;;;;;5009705;28;20514;-72
2022/05/30 09:26:49;;;;;;;5.70;1.53;;;21.80;75.80;;;;;;5007627;28;20517;-73
2022/05/30 09:29:21;;;;;;;2.70;1.27;;;21.10;78.20;;;;;;5004661;28;20449;-73
2022/05/30 09:31:56;;;;;;;2.23;1.30;;;20.30;81.00;;;;;;5012482;28;20447;-71
2022/05/30 09:34:33;;;;;;;3.63;1.67;;;19.80;81.60;;;;;;5012293;28;20436;-71
2022/05/30 09:37:00;;;;;;;2.83;1.23;;;19.30;82.60;;;;;;5010276;28;20563;-74
2022/05/30 09:39:28;;;;;;;2.17;1.33;;;19.00;82.60;;;;;;5019576;28;20439;-72
2022/05/30 09:41:57;;;;;;;5.53;1.63;;;18.40;84.40;;;;;;5010077;28;20459;-74
2022/05/30 09:44:27;;;;;;;3.30;1.83;;;18.10;85.60;;;;;;5012389;28;20453;-73
2022/05/30 09:46:57;;;;;;;2.20;1.13;;;17.90;87.40;;;;;;5010361;28;20458;-73
2022/05/30 09:49:26;;;;;;;2.30;1.50;;;17.90;87.20;;;;;;5015804;28;20535;-73
2022/05/30 09:51:55;;;;;;;6.43;1.30;;;18.30;86.70;;;;;;5011237;28;20448;-73
2022/05/30 09:54:35;;;;;;;7.27;1.10;;;18.50;84.50;;;;;;5012216;28;20440;-72
2022/05/30 09:57:07;;;;;;;3.90;1.20;;;18.70;83.70;;;;;;5011084;28;20476;-72
2022/05/30 09:59:38;;;;;;;3.30;1.63;;;19.00;84.20;;;;;;5011384;28;20463;-73
2022/05/30 10:02:23;;;;;;;2.50;1.10;;;19.10;83.60;;;;;;5013185;28;20530;-72
2022/05/30 10:04:56;;;;;;;1.80;1.10;;;18.50;83.60;;;;;;5007703;28;20490;-73
2022/05/30 10:07:24;;;;;;;1.87;1.07;;;18.30;85.50;;;;;;5014664;28;20912;-73
2022/05/30 10:09:57;;;;;;;1.73;1.00;;;17.90;86.60;;;;;;5012740;28;20459;-72
2022/05/30 10:12:33;;;;;;;3.10;1.20;;;17.50;88.70;;;;;;5018414;28;20453;-73
2022/05/30 10:15:00;;;;;;;1.70;0.80;;;17.20;88.60;;;;;;5017572;28;20548;-72
2022/05/30 10:17:31;;;;;;;2.90;1.20;;;16.80;87.20;;;;;;5007113;28;20243;-74
2022/05/30 10:19:59;;;;;;;5.97;1.60;;;16.50;87.50;;;;;;5015191;28;20214;-72
2022/05/30 10:28:36;;;;;;;2.67;1.40;;;16.40;91.70;;;;;;5018469;28;20568;-73
2022/05/30 10:31:13;;;;;;;3.03;1.40;;;16.60;92.00;;;;;;4995777;28;20666;-73
2022/05/30 10:34:15;;;;;;;1.95;1.27;;;16.50;90.80;;;;;;5013514;28;20292;-74
2022/05/30 10:36:54;;;;;;;2.75;1.10;;;16.40;91.00;;;;;;5008058;28;20648;-74
2022/05/30 10:39:35;;;;;;;3.00;1.48;;;16.30;91.00;;;;;;4994872;28;20207;-72
2022/05/30 10:42:07;;;;;;;5.30;1.88;;;16.30;91.60;;;;;;4996456;28;20220;-71
2022/05/30 10:44:41;;;;;;;4.90;1.20;;;16.40;92.10;;;;;;5021289;28;20215;-72
2022/05/30 10:47:18;;;;;;;1.85;1.15;;;16.40;91.30;;;;;;5015116;28;20279;-73
2022/05/30 10:49:53;;;;;;;3.78;1.38;;;16.40;91.00;;;;;;5014752;28;20225;-73
2022/05/30 10:52:25;;;;;;;2.00;0.90;;;16.30;92.00;;;;;;4986246;28;20234;-73
2022/05/30 10:54:58;;;;;;;2.47;1.35;;;16.10;91.30;;;;;;5013563;28;20227;-73
2022/05/30 10:57:40;;;;;;;2.90;1.38;;;16.20;92.20;;;;;;5013936;28;20217;-73
2022/05/30 11:00:12;;;;;;;2.83;1.00;;;16.30;92.70;;;;;;5011121;28;20198;-74
2022/05/30 11:02:49;;;;;;;2.95;1.40;;;16.20;91.70;;;;;;4996525;28;20587;-73
2022/05/30 11:05:22;;;;;;;3.35;1.23;;;16.40;91.90;;;;;;5011317;28;20231;-74
2022/05/30 11:07:56;;;;;;;4.60;1.05;;;16.40;91.90;;;;;;5010453;28;20215;-74
2022/05/30 11:10:39;;;;;;;1.60;1.10;;;16.60;91.80;;;;;;5012487;28;20596;-75
2022/05/30 11:13:15;;;;;;;3.20;1.50;;;16.80;91.60;;;;;;5012625;28;20216;-74
2022/05/30 11:15:48;;;;;;;2.40;1.48;;;16.80;91.10;;;;;;4990954;28;20306;-74
2022/05/30 11:18:23;;;;;;;4.20;1.35;;;16.80;91.40;;;;;;4993542;28;20600;-72
2022/05/30 11:21:00;;;;;;;3.05;1.40;;;16.50;90.70;;;;;;5006778;28;20198;-73
2022/05/30 11:23:26;;;;;;;1.60;1.20;;;16.40;91.80;;;;;;5006735;28;20207;-73
2022/05/30 11:26:22;;;;;;;2.37;1.23;;;16.50;92.40;;;;;;5007068;28;20244;-75
2022/05/30 11:29:15;;;;;;;2.27;1.27;;;16.80;92.20;;;;;;5001676;28;20451;-73
2022/05/30 11:31:49;;;;;;;3.50;1.80;;;17.10;91.80;;;;;;5003523;28;20447;-74
2022/05/30 11:34:37;;;;;;;4.07;1.45;;;17.40;91.40;;;;;;5004502;28;20474;-74
2022/05/30 11:37:17;;;;;;;3.53;1.33;;;17.50;90.80;;;;;;5012477;28;20205;-74
2022/05/30 11:39:57;;;;;;;3.63;1.43;;;17.80;90.70;;;;;;5012964;28;20440;-71
2022/05/30 11:42:30;;;;;;;2.87;1.57;;;18.00;90.80;;;;;;5010057;28;20440;-71
2022/05/30 11:45:03;;;;;;;2.73;1.13;;;18.30;88.70;;;;;;5019050;28;20480;-71
2022/05/30 11:47:40;;;;;;;2.67;1.50;;;18.20;88.80;;;;;;5014552;28;20471;-72
2022/05/30 11:50:33;;;;;;;2.30;1.00;;;18.40;89.00;;;;;;5016052;28;20444;-74
2022/05/30 11:53:42;;;;;;;3.03;0.97;;;18.50;87.90;;;;;;5002095;28;20463;-75
2022/05/30 11:56:20;;;;;;;3.10;1.13;;;18.50;86.70;;;;;;4980609;28;20482;-72
2022/05/30 11:59:05;;;;;;;5.80;1.30;;;18.80;86.40;;;;;;5007082;28;20480;-73
2022/05/30 12:01:35;;;;;;;1.03;0.80;;;19.00;83.80;;;;;;4995630;28;20528;-74
2022/05/30 12:04:28;;;;;;;5.30;1.37;;;18.50;83.20;;;;;;5012093;28;20456;-73
2022/05/30 12:07:33;;;;;;;2.47;1.20;;;18.30;85.30;;;;;;5011051;28;20625;-74
2022/05/30 12:10:13;;;;;;;1.00;0.80;;;18.10;85.90;;;;;;4994369;28;20527;-74
2022/05/30 12:12:54;;;;;;;1.93;1.27;;;18.10;86.60;;;;;;5012912;28;20490;-72
2022/05/30 12:15:48;;;;;;;7.60;4.80;;;18.00;86.60;;;;;;4992836;28;20459;-73
2022/05/30 12:24:31;;;;;;;2.03;1.40;;;18.00;88.80;;;;;;5003276;28;20530;-72
2022/05/30 12:27:01;;;;;;;3.20;1.00;;;18.00;88.40;;;;;;5011647;28;20451;-73
2022/05/30 12:29:45;;;;;;;6.37;2.30;;;17.80;87.50;;;;;;5005454;28;20934;-73
2022/05/30 12:32:36;;;;;;;4.20;1.63;;;17.80;87.00;;;;;;5009966;28;20454;-74
2022/05/30 12:35:20;;;;;;;2.13;1.40;;;18.00;86.80;;;;;;5008079;28;20475;-76
2022/05/30 12:37:51;;;;;;;2.70;1.07;;;18.30;87.60;;;;;;5009541;28;20475;-75
2022/05/30 12:40:37;;;;;;;6.37;2.60;;;18.40;86.20;;;;;;5010978;28;20466;-73
2022/05/30 12:43:13;;;;;;;2.80;1.17;;;18.50;85.30;;;;;;5012480;28;20462;-74
2022/05/30 12:45:46;;;;;;;2.10;1.57;;;18.20;84.10;;;;;;5011015;28;20589;-72
2022/05/30 12:48:17;;;;;;;1.23;0.83;;;18.40;86.20;;;;;;5009636;28;20436;-74
2022/05/30 12:51:01;;;;;;;2.00;0.97;;;18.30;84.60;;;;;;5004497;28;20448;-73
2022/05/30 12:54:01;;;;;;;4.60;1.47;;;18.20;86.10;;;;;;5006029;28;20851;-74
2022/05/30 12:57:02;;;;;;;3.00;1.43;;;18.40;86.00;;;;;;5011887;28;20819;-73
2022/05/30 12:59:36;;;;;;;3.13;1.60;;;18.60;85.20;;;;;;5007370;28;20491;-73
2022/05/30 13:02:06;;;;;;;4.10;1.00;;;18.80;85.20;;;;;;5006993;28;20440;-72
2022/05/30 13:04:36;;;;;;;2.10;0.90;;;18.80;83.70;;;;;;5009831;28;20452;-72
2022/05/30 13:07:17;;;;;;;2.80;1.60;;;18.90;83.50;;;;;;5003918;28;20495;-73
2022/05/30 13:09:46;;;;;;;2.50;0.77;;;19.30;83.70;;;;;;5011546;28;20479;-72
2022/05/30 13:12:51;;;;;;;2.70;1.13;;;19.30;82.60;;;;;;5009088;28;20502;-73
2022/05/30 13:15:26;;;;;;;2.40;1.50;;;19.20;82.80;;;;;;5010280;28;20546;-72
2022/05/30 13:18:10;;;;;;;3.63;1.60;;;19.00;83.20;;;;;;5015672;28;20497;-73
2022/05/30 13:20:50;;;;;;;2.33;1.20;;;18.20;84.00;;;;;;5011733;28;20459;-72
2022/05/30 13:23:28;;;;;;;1.40;0.90;;;18.40;85.70;;;;;;5014165;28;20670;-72
2022/05/30 13:25:56;;;;;;;2.53;1.30;;;18.20;86.30;;;;;;5012075;28;21066;-73
2022/05/30 13:28:25;;;;;;;2.57;1.60;;;18.40;86.30;;;;;;5014950;28;20633;-73
2022/05/30 13:30:54;;;;;;;2.70;1.63;;;18.50;85.50;;;;;;5013890;28;20483;-74
2022/05/30 13:33:26;;;;;;;2.27;1.30;;;18.30;84.30;;;;;;5007462;28;20490;-73